createdAt,value
2022-07-25T00:02:48.064Z,12.1
2022-07-25T00:07:53.620Z,11.8
2022-07-25T00:13:40.624Z,11.8
2022-07-25T00:18:48.141Z,11.9
2022-07-25T00:24:40.591Z,12.1
2022-07-25T00:29:47.496Z,11.8
2022-07-25T00:34:47.592Z,12
2022-07-25T00:39:47.681Z,12.1
2022-07-25T00:45:40.614Z,12
2022-07-25T00:50:40.633Z,12
2022-07-25T00:55:47.744Z,11.9
2022-07-25T01:01:40.733Z,11.9
2022-07-25T01:06:48.150Z,11.8
2022-07-25T01:12:40.601Z,11.9
2022-07-25T01:17:47.822Z,12
2022-07-25T01:23:40.618Z,11.7
2022-07-25T01:28:43.137Z,11.9
2022-07-25T01:34:40.635Z,11.9
2022-07-25T01:39:47.424Z,11.9
2022-07-25T01:44:47.739Z,12
2022-07-25T01:50:40.647Z,12.1
2022-07-25T01:55:40.661Z,11.9
2022-07-25T02:00:47.951Z,12
2022-07-25T02:05:47.970Z,12
2022-07-25T02:11:40.624Z,11.9
2022-07-25T02:16:40.755Z,11.8
2022-07-25T02:21:48.040Z,11.9
2022-07-25T02:27:40.667Z,11.9
2022-07-25T02:32:47.434Z,11.8
2022-07-25T02:37:54.377Z,11.9
2022-07-25T02:43:40.701Z,11.9
2022-07-25T02:48:47.535Z,11.9
2022-07-25T02:54:40.637Z,12.1
2022-07-25T02:59:40.660Z,12
2022-07-25T03:04:48.091Z,12
2022-07-25T03:10:40.667Z,12
2022-07-25T03:15:40.657Z,11.9
2022-07-25T03:20:47.425Z,12.1
2022-07-25T03:25:47.448Z,11.9
2022-07-25T03:30:47.906Z,12
2022-07-25T03:36:40.696Z,11.9
2022-07-25T03:41:47.428Z,12
2022-07-25T03:46:47.941Z,12
2022-07-25T03:52:40.674Z,12
2022-07-25T03:57:40.689Z,11.9
2022-07-25T04:02:47.495Z,12
2022-07-25T04:07:47.909Z,11.9
2022-07-25T04:13:40.673Z,11.9
2022-07-25T04:18:40.673Z,11.9
2022-07-25T04:23:40.662Z,12
2022-07-25T04:28:40.699Z,12
2022-07-25T04:33:40.684Z,12.1
2022-07-25T04:38:40.708Z,12.1
2022-07-25T04:43:48.933Z,12
2022-07-25T04:49:40.656Z,12.1
2022-07-25T04:54:40.686Z,12.1
2022-07-25T04:59:40.700Z,12.2
2022-07-25T05:04:45.182Z,12.1
2022-07-25T05:09:40.727Z,12.2
2022-07-25T05:14:48.317Z,12.2
2022-07-25T05:19:48.436Z,12.3
2022-07-25T05:25:40.708Z,12.3
2022-07-25T05:30:48.075Z,12.4
2022-07-25T05:36:45.480Z,12.3
2022-07-25T05:41:47.490Z,12.4
2022-07-25T05:46:47.569Z,12.2
2022-07-25T05:52:40.706Z,12.3
2022-07-25T05:57:47.523Z,12.6
2022-07-25T06:02:48.314Z,12.3
2022-07-25T06:08:40.722Z,12.7
2022-07-25T06:13:48.007Z,12.9
2022-07-25T06:19:40.724Z,12.8
2022-07-25T06:24:47.506Z,12.9
2022-07-25T06:29:47.610Z,13
2022-07-25T06:35:40.705Z,12.5
2022-07-25T06:40:40.727Z,13
2022-07-25T06:45:47.675Z,13.2
2022-07-25T06:51:40.724Z,13.7
2022-07-25T06:56:40.743Z,13.5
2022-07-25T07:01:51.466Z,13.3
2022-07-25T07:07:45.712Z,13.2
2022-07-25T07:12:40.799Z,13.7
2022-07-25T07:17:48.334Z,14
2022-07-25T07:23:40.743Z,14.7
2022-07-25T07:28:40.754Z,15.1
2022-07-25T07:33:47.950Z,15.6
2022-07-25T07:38:48.302Z,15.3
2022-07-25T07:44:40.756Z,15.5
2022-07-25T07:49:40.749Z,15.4
2022-07-25T07:54:48.022Z,15.3
2022-07-25T07:59:48.202Z,15.6
2022-07-25T08:05:40.732Z,14.8
2022-07-25T08:10:40.762Z,14.7
2022-07-25T08:15:47.705Z,14.4
2022-07-25T08:20:47.904Z,15.3
2022-07-25T08:26:40.760Z,14.7
2022-07-25T08:31:40.866Z,15
2022-07-25T08:36:48.051Z,14.6
2022-07-25T08:42:40.815Z,14.6
2022-07-25T08:47:48.037Z,14.4
2022-07-25T08:53:40.777Z,14.7
2022-07-25T08:58:40.797Z,14.2
2022-07-25T09:03:47.563Z,14.5
2022-07-25T09:08:48.181Z,14.7
2022-07-25T09:14:40.787Z,14.4
2022-07-25T09:19:40.807Z,15.3
2022-07-25T09:24:40.866Z,14.8
2022-07-25T09:29:40.825Z,14.3
2022-07-25T09:34:48.118Z,14.6
2022-07-25T09:40:40.815Z,15.4
2022-07-25T09:45:47.826Z,14.9
2022-07-25T09:50:47.647Z,14.9
2022-07-25T09:55:48.343Z,14.8
2022-07-25T10:01:40.907Z,15.1
2022-07-25T10:06:40.814Z,14.6
2022-07-25T10:11:40.823Z,14.7
2022-07-25T10:16:40.890Z,14.6
2022-07-25T10:21:40.832Z,14.3
2022-07-25T10:26:48.197Z,14.4
2022-07-25T10:32:40.825Z,14.2
2022-07-25T10:37:42.226Z,14.5
2022-07-25T10:42:47.913Z,14.5
2022-07-25T10:48:40.939Z,14.5
2022-07-25T10:53:48.165Z,15
2022-07-25T10:59:40.847Z,15.6
2022-07-25T11:04:40.863Z,15.6
2022-07-25T11:09:47.616Z,15.2
2022-07-25T11:14:47.633Z,15.6
2022-07-25T11:19:48.388Z,16.1
2022-07-25T11:25:40.862Z,16.2
2022-07-25T11:30:48.247Z,15.7
2022-07-25T11:36:40.873Z,16.1
2022-07-25T11:41:40.888Z,15.8
2022-07-25T11:46:48.613Z,16
2022-07-25T11:52:40.904Z,16
2022-07-25T11:57:48.025Z,16
2022-07-25T12:03:41.076Z,16.9
2022-07-25T12:08:48.566Z,17
2022-07-25T12:14:40.876Z,16.7
2022-07-25T12:19:40.885Z,16.3
2022-07-25T12:24:48.252Z,16.2
2022-07-25T12:30:40.975Z,15.5
2022-07-25T12:35:47.673Z,16.4
2022-07-25T12:41:40.889Z,16
2022-07-25T12:46:44.612Z,15.7
2022-07-25T12:51:48.213Z,15.5
2022-07-25T12:57:40.920Z,16.5
2022-07-25T13:02:41.043Z,15.8
2022-07-25T13:07:48.057Z,15.5
2022-07-25T13:13:40.897Z,15
2022-07-25T13:18:41.057Z,15.1
2022-07-25T13:23:40.951Z,14.2
2022-07-25T13:28:59.626Z,14.6
2022-07-25T13:34:40.906Z,14.7
2022-07-25T13:39:40.933Z,14.5
2022-07-25T13:45:41.000Z,14.7
2022-07-25T13:50:47.688Z,14.8
2022-07-25T13:55:47.716Z,15.2
2022-07-25T14:00:47.774Z,14.7
2022-07-25T14:05:47.993Z,14.5
2022-07-25T14:11:40.937Z,14.9
2022-07-25T14:16:48.082Z,14.9
2022-07-25T14:22:40.934Z,14.7
2022-07-25T14:27:48.089Z,14.7
2022-07-25T14:33:40.960Z,14.8
2022-07-25T14:38:40.962Z,15.1
2022-07-25T14:43:41.043Z,14.8
2022-07-25T14:48:47.950Z,14.8
2022-07-25T14:53:53.001Z,14.7
2022-07-25T14:58:48.555Z,15
2022-07-25T15:04:41.015Z,14.7
2022-07-25T15:09:40.961Z,14.2
2022-07-25T15:14:40.956Z,14.1
2022-07-25T15:19:48.397Z,14.2
2022-07-25T15:30:47.722Z,14.5
2022-07-25T15:35:47.736Z,14
2022-07-25T15:40:48.222Z,14.5
2022-07-25T15:46:40.998Z,13.9
2022-07-25T15:51:41.015Z,14.5
2022-07-25T15:56:48.002Z,14
2022-07-25T16:01:48.060Z,14.5
2022-07-25T16:07:41.006Z,14.4
2022-07-25T16:12:47.761Z,14.5
2022-07-25T16:17:47.916Z,14.6
2022-07-25T16:22:48.233Z,13.9
2022-07-25T16:28:40.991Z,14.2
2022-07-25T16:33:47.793Z,14.3
2022-07-25T16:38:48.487Z,14.3
2022-07-25T16:44:41.053Z,13.9
2022-07-25T16:49:48.480Z,13.7
2022-07-25T16:55:41.001Z,13.6
2022-07-25T17:00:41.034Z,14.1
2022-07-25T17:05:48.162Z,14
2022-07-25T17:10:48.768Z,13.5
2022-07-25T17:16:41.015Z,13.5
2022-07-25T17:21:41.008Z,14
2022-07-25T17:26:41.009Z,13.7
2022-07-25T17:31:41.110Z,14
2022-07-25T17:36:47.798Z,13.5
2022-07-25T17:41:47.877Z,13.4
2022-07-25T17:46:48.321Z,13.4
2022-07-25T17:51:48.351Z,13.2
2022-07-25T17:56:48.362Z,13
2022-07-25T18:01:48.609Z,13
2022-07-25T18:07:40.998Z,12.6
2022-07-25T18:12:41.024Z,12.8
2022-07-25T18:17:41.030Z,12.8
2022-07-25T18:22:41.041Z,12.7
2022-07-25T18:27:47.836Z,12.7
2022-07-25T18:32:47.831Z,12.8
2022-07-25T18:38:41.035Z,12.7
2022-07-25T18:43:48.241Z,12.8
2022-07-25T18:49:41.015Z,12.8
2022-07-25T18:54:48.603Z,12.7
2022-07-25T19:00:41.061Z,12.6
2022-07-25T19:05:47.834Z,12.3
2022-07-25T19:10:47.815Z,12.8
2022-07-25T19:15:48.598Z,12.6
2022-07-25T19:21:41.064Z,12.6
2022-07-25T19:26:48.656Z,12.7
2022-07-25T19:31:48.096Z,12.5
2022-07-25T19:37:41.057Z,12.5
2022-07-25T19:42:41.146Z,12.5
2022-07-25T19:47:48.742Z,12.7
2022-07-25T19:53:41.053Z,12.7
2022-07-25T19:58:43.135Z,12.6
2022-07-25T20:03:48.140Z,12
2022-07-25T20:09:41.078Z,11.8
2022-07-25T20:14:47.833Z,11.8
2022-07-25T20:19:47.839Z,11.9
2022-07-25T20:25:41.105Z,11.8
2022-07-25T20:30:48.013Z,11.8
2022-07-25T20:35:48.670Z,11.7
2022-07-25T20:41:41.069Z,11.7
2022-07-25T20:46:41.203Z,11.6
2022-07-25T20:51:41.112Z,11.8
2022-07-25T20:56:47.881Z,12
2022-07-25T21:01:48.764Z,11.7
2022-07-25T21:07:41.078Z,11.3
2022-07-25T21:12:41.097Z,11.4
2022-07-25T21:17:47.921Z,11.6
2022-07-25T21:22:48.142Z,11.7
2022-07-25T21:27:48.324Z,11.3
2022-07-25T21:33:41.093Z,11.7
2022-07-25T21:38:41.109Z,11.6
2022-07-25T21:43:47.860Z,11.8
2022-07-25T21:48:47.979Z,11.8
2022-07-25T21:53:48.789Z,11.8
2022-07-25T21:59:41.113Z,11.7
2022-07-25T22:04:41.146Z,11.7
2022-07-25T22:09:47.902Z,11.8
2022-07-25T22:14:47.912Z,11.9
2022-07-25T22:19:49.855Z,11.9
2022-07-25T22:25:41.153Z,11.9
2022-07-25T22:30:48.106Z,11.9
2022-07-25T22:36:41.122Z,11.8
2022-07-25T22:41:41.125Z,11.7
2022-07-25T22:46:41.131Z,11.6
2022-07-25T22:51:47.934Z,11.6
2022-07-25T22:57:41.129Z,11.7
2022-07-25T23:02:48.004Z,11.7
2022-07-25T23:07:47.929Z,11.7
2022-07-25T23:12:47.982Z,11.9
2022-07-25T23:18:41.132Z,11.9
2022-07-25T23:23:48.045Z,11.9
2022-07-25T23:28:48.355Z,11.8
2022-07-25T23:34:41.134Z,11.9
2022-07-25T23:39:48.256Z,12
2022-07-25T23:44:48.481Z,12.1
2022-07-25T23:50:41.145Z,12
2022-07-25T23:55:47.928Z,12.1
